الصفحة الرئيسية
METAR-TAF:

METAR-TAF

مطار :

مطار الكويت الدولي

مدينة الكويت, الكويت

دائرة عرض: 29-13N, خط طول: 047-59E, ارتفاع: 55 متر

مراقبة الطقس الحالي

تاريخ ووقت الإصدار 56 دقيقة قبل الساعة 06:00UTC
ريح 6 عقدة من الشمال الغربي
درجة الحرارة 27°درجة مئوية
الرطوبة 21%
ضغط 1017 hPa
الرؤية: 5000 متر
(خفيف) العجاج

METAR: OKBK 060600Z 31006KT 5000 -HZ NSC 27/03 Q1017 NOSIG

زمن: 09:56 (06:56 UTC)

توقعات

تاريخ ووقت الإصدار 2ساعات و 11 دقيقة قبل الساعة 04:45UTC
التوقعات صالحة من06 الساعة 06 UTC إلى 07 الساعة 12 UTC
ريح 3 عقدةمن اتجاهات متغيرة
الرؤية: 6000 متر
أصبح
من 06 الساعة 14 UTC إلى 06 الساعة 16 UTC
ريح 10 عقدة من الجنوب/الجنوب الشرقي

TAF: OKBK 060445Z 0606/0712 VRB03KT 6000 NSC BECMG 0614/0616 15010KT

أرصاد الطقس والتوقعات من أكثر من 4000 مطار (تقارير الطقس للمطار METAR والتنبؤ بالطقس بالمطارTAF).

المحطات المتاحة هي النقط الصفراء والحمراء على الخريطة.

حرك المؤشر فوق النقطة لمعرفة اسم المحطة.

ثم انقر لمعرفة أرصاد وتوقعات الطقس.

لتغيير الخارطة: اضغط على الأزرار الخضراء مع رمز الصليب الأسود للتكبير. على الزر الأخضر مع شرطة للتصغير، أو على الأسهم الخضراء للخرائط المجاورة.


METAR-TAF: